Lopez Island, WA (98261)

1:27 PM PDT on March 26, 2017 (GMT -0700)
Swift Bay Lopez Island | | Change Station

Elev 148 ft 48.53 °N, 122.87 °W | Updated 3 seconds ago

Overcast
Overcast
46.4 °F
Feels Like 41 °F
N
11.0
Wind Variable Wind from SSE
Gusts 22.0 mph

Today
High -- | Low -- °F
--% Chance of Precip.
Yesterday
High -- | Low -- °F
Precip. -- in
Pressure 29.74 in
Visibility 10.0 miles
Clouds Scattered Clouds 1400 ft
Mostly Cloudy 4800 ft
Overcast 8500 ft
Windchill 41 °F
Dew Point 43 °F
Humidity 88%
Rainfall 0.18 in
Snow Depth Not available.
7:01 AM 7:33 PM
Waning Crescent, 2% visible
SPECI KFHR 262011Z AUTO 11014G21KT 10SM SCT014 BKN048 OVC085 09/05 A2974 RMK AO2 T00890050 TSNO
Pressure 29.74 in
Visibility 10.0 miles
Clouds Scattered Clouds 1400 ft
Mostly Cloudy 4800 ft
Overcast 8500 ft
Windchill 41 °F
Dew Point 43 °F
Humidity 88%
Rainfall 0.18 in
Snow Depth Not available.
7:01 AM 7:33 PM
Waning Crescent, 2% visible
SPECI KFHR 262011Z AUTO 11014G21KT 10SM SCT014 BKN048 OVC085 09/05 A2974 RMK AO2 T00890050 TSNO

Get Severe Weather Alerts

Thanks for signing up!

Be on the lookout for a verification email in your inbox.

You'll start receiving the daily forecast at 8 AM.

×

10-Day Weather Forecast

Almanac

Astronomy

Mar. 26, 2017 Rise Set
Actual Time
Civil Twilight
Nautical Twilight
Astronomical Twilight
Moon
Length of Visible Light
Length of Day
Tomorrow will be .
, % of the Moon is Illuminated

Today's Extremes

State Highs State Lows

Community

WunderPhotos

Upload Photos

1,962,540 photos uploaded!

WunderBlog® & News

Nearby

Air Quality

  Air Quality AQ Index Pollutant
Not available.

Snow Depth

Station Depth Elevation

Earthquake Activity

City Distance Mag. Time & Date
Minimum magnitude displayed is 2.5.

Earthquake Activity

City Distance Mag. Time & Date
Minimum magnitude displayed is 2.5.

Coastal Water Temperatures

Place Temperature

Stations

Nearby Weather Stations

Station Location Temp. Windchill Dew Point Humidity Wind Precip. Elev Updated Type
                   

Watches & Warnings

There are currently no watches in effect.